Time;durP1;ratioP1;P1;durP2;ratioP2;P2;SDS_P1;SDS_P2;PMS_P1;PMS_P2;Temp;Humidity;BMP_temperature;BMP_pressure;BME280_temperature;BME280_humidity;BME280_pressure;Samples;Min_cycle;Max_cycle;Signal;HPM_P1;HPM_P2
2022/08/11 00:00:14;;;;;;;4.50;2.70;;;;;;;18.04;79.31;102034.47;5201123;28;20025;-68
2022/08/11 00:02:50;;;;;;;5.97;2.97;;;;;;;17.81;74.63;102031.09;5216452;28;20030;-68
2022/08/11 00:05:22;;;;;;;4.55;2.95;;;;;;;17.87;76.08;102037.81;5213626;28;20030;-67
2022/08/11 00:07:56;;;;;;;6.13;3.28;;;;;;;17.74;76.70;102036.19;5201381;28;20036;-67
2022/08/11 00:10:28;;;;;;;9.25;3.30;;;;;;;17.86;71.46;102033.44;5211621;28;20038;-67
2022/08/11 00:13:06;;;;;;;7.80;3.33;;;;;;;17.76;78.86;102031.50;5212658;28;20135;-67
2022/08/11 00:15:42;;;;;;;5.78;3.80;;;;;;;17.78;71.55;102031.38;5209488;28;20028;-67
2022/08/11 00:18:15;;;;;;;4.38;3.10;;;;;;;17.75;75.59;102027.09;5210022;28;20058;-68
2022/08/11 00:20:47;;;;;;;7.85;3.35;;;;;;;17.72;80.45;102024.69;5205439;28;20030;-67
2022/08/11 00:23:19;;;;;;;5.72;2.85;;;;;;;17.75;78.30;102027.09;5209189;28;20040;-67
2022/08/11 00:25:52;;;;;;;6.10;3.58;;;;;;;17.72;77.84;102034.59;5209493;28;20481;-67
2022/08/11 00:28:24;;;;;;;8.25;3.65;;;;;;;17.66;79.51;102033.31;5202263;28;20024;-68
2022/08/11 00:31:01;;;;;;;8.98;3.15;;;;;;;17.61;75.52;102032.88;5216682;28;20042;-68
2022/08/11 00:33:37;;;;;;;7.53;3.55;;;;;;;17.63;81.66;102034.44;5205794;28;20033;-67
2022/08/11 00:36:11;;;;;;;6.65;3.42;;;;;;;17.48;80.86;102038.47;5223256;28;20912;-67
2022/08/11 00:38:44;;;;;;;;;;;;;;;17.64;76.81;102033.44;5208919;28;20133;-67
2022/08/11 00:41:41;;;;;;;8.50;3.45;;;;;;;17.41;81.00;102027.38;5210713;28;19964;-67
2022/08/11 00:44:34;;;;;;;4.88;3.20;;;;;;;17.42;79.74;102028.22;5199571;28;20485;-68
2022/08/11 00:47:39;;;;;;;6.10;3.70;;;;;;;17.41;81.50;102029.19;5217435;28;20138;-68
2022/08/11 00:50:23;;;;;;;5.93;3.57;;;;;;;17.37;79.37;102035.84;5206609;28;20390;-68
2022/08/11 00:52:57;;;;;;;;;;;;;;;17.47;77.04;102033.19;5213374;28;20037;-68
2022/08/11 00:56:05;;;;;;;5.47;3.50;;;;;;;17.31;79.37;102028.28;5211615;28;20300;-68
2022/08/11 00:58:55;;;;;;;6.97;3.75;;;;;;;17.29;80.53;102035.66;5207171;28;20452;-68
2022/08/11 01:01:36;;;;;;;6.05;3.63;;;;;;;17.21;79.71;102025.53;5203942;28;20082;-67
2022/08/11 01:04:37;;;;;;;6.75;3.83;;;;;;;17.22;82.25;102030.78;5201940;28;20498;-67
2022/08/11 01:07:27;;;;;;;4.60;3.42;;;;;;;17.15;82.03;102024.22;5206727;28;20034;-67
2022/08/11 01:10:32;;;;;;;5.25;4.20;;;;;;;17.10;81.37;102028.28;5204218;28;20044;-67
2022/08/11 01:13:06;;;;;;;6.05;3.63;;;;;;;17.07;81.02;102020.44;5206984;28;20034;-68
2022/08/11 01:16:06;;;;;;;5.90;3.78;;;;;;;17.04;80.81;102026.97;5202508;28;20754;-68
2022/08/11 01:18:55;;;;;;;7.25;4.20;;;;;;;17.02;82.43;102029.78;5206791;28;20038;-68
2022/08/11 01:21:55;;;;;;;6.70;4.38;;;;;;;17.00;82.00;102026.38;5198843;28;20083;-68
2022/08/11 01:24:50;;;;;;;7.00;4.10;;;;;;;16.94;81.63;102028.75;5218041;28;20028;-68
2022/08/11 01:27:40;;;;;;;7.90;4.35;;;;;;;16.92;84.58;102034.25;5202949;28;20842;-67
2022/08/11 01:30:42;;;;;;;6.00;3.90;;;;;;;16.81;83.55;102031.56;5206597;28;20115;-68
2022/08/11 01:33:51;;;;;;;6.50;3.60;;;;;;;16.85;80.12;102035.75;5210870;28;21376;-68
2022/08/11 01:36:40;;;;;;;10.77;3.85;;;;;;;16.81;83.05;102040.50;5209798;28;20050;-68
2022/08/11 01:39:48;;;;;;;5.70;3.65;;;;;;;16.80;81.92;102036.13;5212274;28;20064;-68
2022/08/11 01:45:47;;;;;;;6.05;3.90;;;;;;;16.76;79.59;102041.88;5209976;28;20041;-68
2022/08/11 01:48:39;;;;;;;5.88;3.92;;;;;;;16.78;82.08;102043.47;5221811;28;20030;-67
2022/08/11 01:51:33;;;;;;;5.15;4.25;;;;;;;16.75;83.40;102037.50;5206380;28;20034;-67
2022/08/11 01:54:26;;;;;;;8.90;4.53;;;;;;;16.72;83.58;102045.81;5204663;28;20440;-67
2022/08/11 01:57:03;;;;;;;5.00;3.85;;;;;;;16.62;84.50;102046.59;5200918;28;20040;-67
2022/08/11 01:59:47;;;;;;;8.18;4.45;;;;;;;16.50;83.70;102042.22;5219130;28;20080;-67
2022/08/11 02:02:44;;;;;;;7.72;4.25;;;;;;;16.61;85.02;102034.09;5209117;28;20530;-67
2022/08/11 02:05:44;;;;;;;8.25;4.32;;;;;;;16.60;85.88;102039.63;5206552;28;20026;-69
2022/08/11 02:08:43;;;;;;;5.40;4.40;;;;;;;16.52;83.52;102034.88;5202782;28;20045;-67
2022/08/11 02:11:30;;;;;;;5.88;4.03;;;;;;;16.49;84.53;102047.72;5211195;28;20063;-67
2022/08/11 02:14:19;;;;;;;5.07;3.85;;;;;;;16.49;86.13;102040.50;5214657;28;20511;-67
2022/08/11 02:17:12;;;;;;;7.53;4.68;;;;;;;16.36;85.31;102043.38;5205424;28;20030;-67
2022/08/11 02:26:01;;;;;;;8.38;5.35;;;;;;;16.28;87.52;102040.44;5203911;28;20033;-67
2022/08/11 02:28:56;;;;;;;8.25;5.30;;;;;;;16.26;85.61;102035.19;5219175;28;20391;-67
2022/08/11 02:34:55;;;;;;;5.88;4.90;;;;;;;16.19;83.14;102035.81;5212763;28;20034;-67
2022/08/11 02:37:32;;;;;;;9.32;4.97;;;;;;;16.11;83.98;102030.16;5207309;28;20428;-67
2022/08/11 02:40:34;;;;;;;8.32;5.50;;;;;;;16.15;87.86;102028.97;5213945;28;20482;-67
2022/08/11 02:43:14;;;;;;;7.30;5.13;;;;;;;16.07;87.80;102024.22;5207074;28;20045;-67
2022/08/11 02:46:00;;;;;;;8.30;5.40;;;;;;;16.07;87.61;102026.91;5202604;28;20140;-67
2022/08/11 02:52:13;;;;;;;7.97;5.40;;;;;;;16.03;86.44;102025.41;5201774;28;20042;-67
2022/08/11 02:55:05;;;;;;;7.80;5.45;;;;;;;15.99;86.49;102023.94;5222817;28;20117;-68
2022/08/11 02:57:46;;;;;;;7.65;5.75;;;;;;;15.94;86.75;102016.25;5209825;28;20127;-67
2022/08/11 03:00:19;;;;;;;7.72;5.75;;;;;;;15.94;89.79;102024.34;5206817;28;20045;-67
2022/08/11 03:02:56;;;;;;;8.60;5.93;;;;;;;15.88;87.63;102017.59;5212385;28;20040;-67
2022/08/11 03:05:49;;;;;;;8.77;5.68;;;;;;;15.93;87.92;102019.06;5220373;28;20031;-67
2022/08/11 03:08:30;;;;;;;11.65;5.97;;;;;;;15.81;85.49;102021.75;5222321;28;20505;-67
2022/08/11 03:17:07;;;;;;;12.32;6.40;;;;;;;15.78;88.06;102027.41;5208746;28;19918;-67
2022/08/11 03:19:59;;;;;;;12.00;6.47;;;;;;;15.81;88.60;102027.16;5212168;28;20028;-67
2022/08/11 03:22:39;;;;;;;12.63;5.88;;;;;;;15.69;86.72;102025.41;5211790;28;20034;-67
2022/08/11 03:25:48;;;;;;;8.02;5.95;;;;;;;15.73;89.56;102018.84;5216431;28;20026;-67
2022/08/11 03:28:34;;;;;;;12.10;6.57;;;;;;;15.68;89.93;102031.75;5219540;28;20034;-67
2022/08/11 03:31:19;;;;;;;7.00;5.50;;;;;;;15.59;88.19;102021.72;5204905;28;20086;-68
2022/08/11 03:34:01;;;;;;;7.15;5.40;;;;;;;15.66;87.68;102028.34;5217832;28;20113;-68
2022/08/11 03:36:59;;;;;;;7.55;5.47;;;;;;;15.54;87.25;102030.16;5211414;28;20037;-68
2022/08/11 03:39:58;;;;;;;8.93;5.93;;;;;;;15.51;87.67;102027.69;5210577;28;20057;-68
2022/08/11 03:42:35;;;;;;;8.05;5.82;;;;;;;15.44;88.30;102039.94;5212484;28;20085;-67
2022/08/11 03:45:22;;;;;;;9.55;5.60;;;;;;;15.44;87.40;102030.03;5206419;28;21217;-67
2022/08/11 03:48:19;;;;;;;10.18;5.63;;;;;;;15.50;90.21;102028.69;5214135;28;20090;-67
2022/08/11 03:50:51;;;;;;;10.88;6.38;;;;;;;15.47;90.48;102023.53;5213614;28;20449;-67
2022/08/11 03:53:31;;;;;;;6.70;5.30;;;;;;;15.47;90.22;102024.41;5204565;28;20061;-67
2022/08/11 03:56:46;;;;;;;8.48;5.72;;;;;;;15.46;88.81;102020.00;5213848;28;20083;-67
2022/08/11 03:59:20;;;;;;;;;;;;;;;15.48;87.04;102025.28;5209681;28;20082;-68
2022/08/11 04:02:16;;;;;;;7.93;5.80;;;;;;;15.37;89.91;102023.41;5213488;28;19922;-68
2022/08/11 04:05:19;;;;;;;7.72;5.55;;;;;;;15.31;88.66;102014.97;5219019;28;20163;-68
2022/08/11 04:08:10;;;;;;;8.65;6.47;;;;;;;15.34;90.56;102018.28;5212616;28;20038;-67
2022/08/11 04:10:50;;;;;;;6.68;5.80;;;;;;;15.22;88.78;102019.22;5203943;28;20026;-68
2022/08/11 04:17:34;;;;;;;8.10;5.72;;;;;;;15.23;89.22;102010.19;5226496;28;20078;-68
2022/08/11 04:20:27;;;;;;;10.85;6.60;;;;;;;15.20;90.80;102013.97;5202745;28;20042;-68
2022/08/11 04:23:27;;;;;;;9.57;5.90;;;;;;;15.23;91.76;102016.44;5209872;28;20041;-67
2022/08/11 04:26:36;;;;;;;8.27;6.10;;;;;;;15.17;90.39;102021.41;5206189;28;20490;-67
2022/08/11 04:29:33;;;;;;;9.98;6.38;;;;;;;15.16;92.63;102015.19;5203074;28;21148;-67
2022/08/11 04:32:43;;;;;;;9.55;6.90;;;;;;;15.13;92.09;102017.25;5213203;28;20026;-67
2022/08/11 04:35:45;;;;;;;8.32;6.55;;;;;;;15.11;91.48;102012.00;5201039;28;20045;-67
2022/08/11 04:38:48;;;;;;;8.00;6.60;;;;;;;15.10;91.03;102024.56;5211902;28;20111;-67
2022/08/11 04:41:31;;;;;;;9.25;6.88;;;;;;;15.13;92.19;102019.94;5201635;28;20120;-67
2022/08/11 04:44:15;;;;;;;10.77;7.20;;;;;;;15.14;92.84;102024.34;5202488;28;20030;-67
2022/08/11 04:47:05;;;;;;;8.27;6.78;;;;;;;15.05;90.44;102009.78;5212847;28;21276;-67
2022/08/11 05:03:27;;;;;;;8.10;6.97;;;;;;;15.15;91.28;102021.56;5207906;28;20140;-67
2022/08/11 05:06:16;;;;;;;10.70;7.15;;;;;;;15.10;90.79;102026.41;5197668;28;20060;-68
2022/08/11 05:09:19;;;;;;;10.73;7.65;;;;;;;15.15;91.80;102026.94;5215619;28;20095;-68
2022/08/11 05:12:08;;;;;;;12.57;7.57;;;;;;;15.14;93.06;102027.03;5208087;28;20064;-68
2022/08/11 05:35:40;;;;;;;9.73;8.65;;;;;;;15.34;91.22;102034.44;5201370;28;20041;-68
2022/08/11 05:58:42;;;;;;;13.23;9.18;;;;;;;15.60;93.32;102028.81;5206077;28;20579;-67
2022/08/11 06:01:23;;;;;;;15.25;9.43;;;;;;;15.68;93.65;102021.00;5200947;28;20030;-67
2022/08/11 06:04:13;;;;;;;11.95;9.20;;;;;;;15.80;92.87;102029.94;5204966;28;20058;-67
2022/08/11 06:06:55;;;;;;;16.08;9.90;;;;;;;15.67;95.33;102028.22;5203373;28;20134;-67
2022/08/11 06:09:32;;;;;;;13.25;9.35;;;;;;;15.76;95.18;102034.75;5200846;28;20035;-68
2022/08/11 06:12:15;;;;;;;12.10;9.38;;;;;;;15.91;89.83;102039.88;5202121;28;20537;-68
2022/08/11 06:14:52;;;;;;;12.10;10.00;;;;;;;15.84;96.31;102031.44;5193355;28;20574;-67
2022/08/11 06:17:32;;;;;;;12.98;9.55;;;;;;;15.94;96.90;102042.31;5191931;28;20037;-65
2022/08/11 06:20:11;;;;;;;13.68;8.55;;;;;;;15.98;91.01;102041.09;5198997;28;20038;-65
2022/08/11 06:22:46;;;;;;;13.45;8.82;;;;;;;16.06;96.21;102038.63;5199729;28;20022;-65
2022/08/11 06:25:18;;;;;;;13.02;8.52;;;;;;;16.12;91.83;102035.44;5200612;28;20034;-65
2022/08/11 06:27:57;;;;;;;10.27;8.38;;;;;;;16.10;95.94;102026.63;5202856;28;20025;-64
2022/08/11 06:30:40;;;;;;;15.55;8.95;;;;;;;16.35;88.09;102032.72;5203817;28;20037;-65
2022/08/11 06:33:42;;;;;;;11.05;8.23;;;;;;;16.33;88.01;102042.75;5218155;28;20034;-65
2022/08/11 06:36:52;;;;;;;9.93;7.85;;;;;;;16.48;86.77;102041.50;5202330;28;20046;-65
2022/08/11 06:39:50;;;;;;;16.23;7.35;;;;;;;16.80;84.97;102038.81;5201611;28;20038;-65
2022/08/11 06:42:52;;;;;;;12.10;7.97;;;;;;;16.97;83.62;102045.53;5206258;28;20048;-65
2022/08/11 06:45:36;;;;;;;12.85;7.70;;;;;;;17.09;83.37;102051.72;5210027;28;20153;-65
2022/08/11 06:48:15;;;;;;;15.27;7.70;;;;;;;17.27;83.32;102054.66;5207334;28;20025;-65
2022/08/11 06:51:11;;;;;;;12.30;7.13;;;;;;;17.54;81.25;102048.72;5221157;28;20044;-65
2022/08/11 06:53:45;;;;;;;12.77;7.03;;;;;;;17.50;82.58;102049.13;5205861;28;21418;-66
2022/08/11 07:02:17;;;;;;;10.25;6.25;;;;;;;18.07;78.66;102052.28;5210768;28;20813;-64
2022/08/11 07:04:56;;;;;;;13.18;6.57;;;;;;;18.07;78.77;102054.97;5205022;28;20798;-64
2022/08/11 07:16:33;;;;;;;11.27;5.53;;;;;;;18.72;75.70;102041.88;5219711;28;20038;-65
2022/08/11 07:30:42;;;;;;;9.30;5.72;;;;;;;19.62;72.29;102051.47;5214974;28;20037;-67
2022/08/11 07:33:25;;;;;;;10.57;4.95;;;;;;;19.59;72.78;102049.03;5210543;28;20061;-67
2022/08/11 07:36:00;;;;;;;7.88;4.82;;;;;;;19.92;70.33;102046.81;5207407;28;20464;-67
2022/08/11 07:38:49;;;;;;;9.40;4.60;;;;;;;19.89;71.03;102039.00;5212984;28;20038;-66
2022/08/11 07:41:23;;;;;;;9.93;5.03;;;;;;;20.22;69.04;102048.38;5216702;28;20039;-66
2022/08/11 07:44:07;;;;;;;10.13;4.95;;;;;;;20.18;70.03;102042.41;5203640;28;20038;-66
2022/08/11 07:52:32;;;;;;;7.28;4.47;;;;;;;20.75;65.29;102042.19;5207070;28;20041;-66
2022/08/11 07:55:15;;;;;;;9.45;4.30;;;;;;;21.05;64.39;102047.38;5204363;28;20042;-66
2022/08/11 08:17:51;;;;;;;8.65;4.00;;;;;;;22.16;56.93;102047.53;5208303;28;20434;-65
2022/08/11 08:20:33;;;;;;;6.82;3.70;;;;;;;22.21;58.18;102050.63;5206348;28;20112;-65
2022/08/11 08:23:06;;;;;;;6.28;3.38;;;;;;;22.38;56.17;102050.69;5204001;28;20036;-65
2022/08/11 08:25:39;;;;;;;6.50;3.75;;;;;;;22.57;55.68;102039.53;5206002;28;20141;-65
2022/08/11 08:28:16;;;;;;;7.80;3.80;;;;;;;22.60;56.80;102038.34;5206778;28;20479;-65
2022/08/11 08:30:55;;;;;;;6.25;3.60;;;;;;;22.79;55.90;102048.06;5205844;28;20044;-65
2022/08/11 08:33:31;;;;;;;7.57;3.38;;;;;;;22.77;55.78;102050.94;5206859;28;20033;-66
2022/08/11 08:36:10;;;;;;;6.05;3.65;;;;;;;22.93;55.59;102041.09;5203937;28;20663;-66
2022/08/11 08:38:47;;;;;;;7.43;3.92;;;;;;;23.02;55.65;102049.09;5205872;28;21341;-66
2022/08/11 08:41:23;;;;;;;7.35;3.83;;;;;;;23.02;55.95;102038.19;5209053;28;20307;-66
2022/08/11 08:43:59;;;;;;;9.10;3.78;;;;;;;23.00;53.98;102042.97;5206608;28;20675;-66
2022/08/11 08:46:35;;;;;;;5.70;3.25;;;;;;;23.36;53.07;102047.25;5205147;28;20383;-66
2022/08/11 08:49:10;;;;;;;5.97;3.67;;;;;;;23.49;53.82;102036.63;5210182;28;20055;-66
2022/08/11 08:51:45;;;;;;;8.88;3.33;;;;;;;23.58;52.79;102040.19;5204861;28;20179;-66
2022/08/11 08:54:22;;;;;;;5.85;3.42;;;;;;;23.55;54.53;102046.84;5203615;28;20518;-66
2022/08/11 08:56:55;;;;;;;7.30;3.42;;;;;;;23.88;51.27;102042.19;5207407;28;20045;-66
2022/08/11 08:59:26;;;;;;;6.07;3.50;;;;;;;23.89;52.32;102037.56;5209966;28;20022;-66
2022/08/11 09:02:04;;;;;;;6.78;3.40;;;;;;;24.02;52.25;102037.00;5206591;28;20094;-66
2022/08/11 09:04:36;;;;;;;9.13;3.95;;;;;;;24.14;52.46;102040.19;5207799;28;20128;-66
2022/08/11 09:07:13;;;;;;;8.43;3.78;;;;;;;24.35;51.39;102037.69;5208083;28;20022;-66
2022/08/11 09:09:51;;;;;;;5.97;3.20;;;;;;;24.42;50.53;102040.56;5204155;28;20037;-66
2022/08/11 09:12:26;;;;;;;7.13;3.15;;;;;;;24.45;49.60;102030.13;5215809;28;20060;-66
2022/08/11 09:15:02;;;;;;;6.88;3.28;;;;;;;24.64;48.96;102036.16;5206418;28;20035;-65
2022/08/11 09:17:45;;;;;;;7.45;3.30;;;;;;;24.77;49.83;102041.84;5207135;28;20068;-66
2022/08/11 09:20:28;;;;;;;9.23;3.55;;;;;;;24.74;49.34;102039.50;5207915;28;20033;-66
2022/08/11 09:28:49;;;;;;;8.57;3.50;;;;;;;24.91;49.55;102029.31;5205523;28;20244;-66
2022/08/11 09:31:21;;;;;;;5.47;3.35;;;;;;;25.12;48.65;102028.63;5207514;28;20033;-67
2022/08/11 09:33:54;;;;;;;10.40;3.42;;;;;;;25.32;47.38;102028.97;5206370;28;20116;-66
2022/08/11 09:42:08;;;;;;;6.07;3.10;;;;;;;25.75;44.22;102017.38;5214315;28;20133;-67
2022/08/11 09:44:47;;;;;;;7.13;3.60;;;;;;;25.79;42.42;102018.69;5204531;28;20029;-67
2022/08/11 09:47:22;;;;;;;12.45;3.55;;;;;;;25.94;41.05;102027.75;5206306;28;20116;-66
2022/08/11 09:50:02;;;;;;;5.68;2.97;;;;;;;25.92;42.05;102024.38;5221713;28;20049;-66
2022/08/11 09:52:40;;;;;;;5.88;3.30;;;;;;;26.14;40.80;102019.81;5207309;28;21497;-66
2022/08/11 09:55:14;;;;;;;5.40;2.90;;;;;;;26.08;41.41;102011.50;5209160;28;20044;-66
2022/08/11 10:00:36;;;;;;;5.65;3.03;;;;;;;26.41;41.50;102004.53;5202283;28;20046;-66
2022/08/11 10:03:15;;;;;;;8.10;3.08;;;;;;;26.33;40.19;102009.28;5204743;28;20049;-66
2022/08/11 10:08:42;;;;;;;5.70;2.63;;;;;;;26.68;42.09;102004.00;5206642;28;20033;-66
2022/08/11 10:11:20;;;;;;;6.57;2.85;;;;;;;26.60;41.38;101991.28;5206138;28;20101;-66
2022/08/11 10:16:44;;;;;;;6.25;2.72;;;;;;;26.72;40.82;101995.19;5199315;28;20042;-66
2022/08/11 10:19:20;;;;;;;4.47;2.73;;;;;;;26.78;40.65;101991.66;5202731;28;20028;-66
2022/08/11 10:27:34;;;;;;;6.13;2.90;;;;;;;27.23;39.04;101990.53;5200899;28;20030;-66
2022/08/11 10:35:48;;;;;;;5.97;2.70;;;;;;;27.17;41.32;101989.44;5191525;28;20033;-66
2022/08/11 10:38:19;;;;;;;4.10;2.80;;;;;;;27.25;39.27;101991.19;5202630;28;20038;-66
2022/08/11 10:43:01;;;;;;;6.15;2.90;;;;;;;27.28;38.19;101983.44;5195560;28;20132;-67
2022/08/11 10:43:43;;;;;;;10.15;3.55;;;;;;;27.51;39.02;101985.03;5201614;28;20478;-66
2022/08/11 10:49:06;;;;;;;5.50;2.95;;;;;;;27.73;39.04;101980.28;5202082;28;20041;-66
2022/08/11 11:00:15;;;;;;;5.38;2.78;;;;;;;27.69;39.43;101970.78;5199600;28;20033;-66
2022/08/11 11:02:47;;;;;;;4.65;2.47;;;;;;;27.93;37.70;101972.19;5202935;28;20491;-66
2022/08/11 11:05:26;;;;;;;5.20;2.40;;;;;;;27.69;37.57;101965.28;5202388;28;20061;-66
2022/08/11 11:11:15;;;;;;;5.50;3.03;;;;;;;27.84;37.82;101959.66;5194435;28;20041;-66
2022/08/11 11:19:37;;;;;;;5.68;2.30;;;;;;;27.99;36.33;101956.81;5204026;28;20559;-67
2022/08/11 11:25:20;;;;;;;5.63;2.70;;;;;;;28.00;37.33;101955.75;5199549;28;20034;-67
2022/08/11 11:28:00;;;;;;;3.95;2.42;;;;;;;28.14;36.96;101955.56;5211107;28;20040;-66
2022/08/11 11:30:41;;;;;;;6.90;2.47;;;;;;;28.14;35.27;101947.34;5198155;28;20049;-66
2022/08/11 11:33:27;;;;;;;5.70;2.30;;;;;;;28.16;36.91;101947.16;5200066;28;20030;-67
2022/08/11 11:36:14;;;;;;;11.85;2.97;;;;;;;28.18;34.86;101953.28;5200802;28;20391;-67
2022/08/11 11:38:45;;;;;;;3.88;2.30;;;;;;;28.50;33.02;101948.06;5205563;28;20053;-67
2022/08/11 11:41:26;;;;;;;5.28;2.28;;;;;;;28.38;32.54;101942.31;5201177;28;20684;-67
2022/08/11 11:43:57;;;;;;;7.05;2.20;;;;;;;28.31;34.54;101949.72;5204529;28;20037;-67
2022/08/11 11:46:30;;;;;;;6.63;2.20;;;;;;;28.64;34.27;101948.94;5203088;28;20030;-67
2022/08/11 11:49:06;;;;;;;6.50;2.60;;;;;;;28.62;32.86;101945.53;5204136;28;20166;-67
2022/08/11 11:51:38;;;;;;;4.60;2.28;;;;;;;28.34;34.25;101927.31;5202519;28;20155;-68
2022/08/11 11:54:10;;;;;;;5.47;2.60;;;;;;;28.57;31.78;101942.59;5218387;28;20035;-67
2022/08/11 11:56:44;;;;;;;12.35;3.15;;;;;;;28.45;33.98;101934.09;5201064;28;21867;-67
2022/08/11 12:02:13;;;;;;;6.80;2.58;;;;;;;28.53;32.73;101931.16;5205795;28;20030;-65
2022/08/11 12:04:47;;;;;;;5.55;2.85;;;;;;;28.94;31.86;101924.63;5196972;28;20037;-65
2022/08/11 12:10:09;;;;;;;8.02;2.35;;;;;;;28.71;30.89;101920.41;5202133;28;20045;-65
2022/08/11 12:15:31;;;;;;;5.57;2.38;;;;;;;29.13;32.80;101925.66;5202087;28;20034;-65
2022/08/11 12:18:03;;;;;;;9.32;2.88;;;;;;;28.94;33.59;101916.38;5208208;28;20086;-65
2022/08/11 12:20:37;;;;;;;4.80;2.33;;;;;;;29.00;33.84;101915.50;5206739;28;21442;-66
2022/08/11 12:28:49;;;;;;;7.03;2.53;;;;;;;28.66;31.30;101908.38;5208137;28;20037;-66
2022/08/11 12:31:24;;;;;;;3.08;2.10;;;;;;;28.98;32.37;101903.06;5204224;28;20442;-66
2022/08/11 12:34:03;;;;;;;4.85;2.25;;;;;;;28.91;34.07;101900.31;5196426;28;20564;-66
2022/08/11 12:36:50;;;;;;;4.90;2.60;;;;;;;28.88;34.03;101896.09;5215086;28;20025;-66
2022/08/11 12:45:27;;;;;;;5.43;2.47;;;;;;;29.26;32.15;101878.88;5213324;28;20081;-66
2022/08/11 12:54:14;;;;;;;6.18;2.50;;;;;;;29.41;31.88;101875.88;5210134;28;20059;-65
2022/08/11 13:05:24;;;;;;;5.65;2.40;;;;;;;29.40;30.84;101870.56;5208780;28;20448;-66
2022/08/11 13:07:56;;;;;;;4.78;2.50;;;;;;;29.25;30.31;101865.38;5220824;28;20026;-66
2022/08/11 13:13:21;;;;;;;4.22;2.38;;;;;;;29.80;29.02;101854.78;5200626;28;20042;-66
2022/08/11 13:15:53;;;;;;;4.32;2.15;;;;;;;29.55;29.66;101860.13;5210373;28;20098;-66
2022/08/11 13:18:26;;;;;;;3.47;2.22;;;;;;;29.54;30.77;101849.38;5217791;28;20470;-66
2022/08/11 13:20:58;;;;;;;5.32;2.55;;;;;;;29.57;28.87;101846.19;5208625;28;20040;-67
2022/08/11 13:23:30;;;;;;;4.80;2.15;;;;;;;29.68;27.89;101850.97;5206013;28;20041;-67
2022/08/11 13:26:02;;;;;;;6.70;3.00;;;;;;;29.63;28.88;101834.28;5203533;28;20049;-67
2022/08/11 13:28:35;;;;;;;4.93;2.47;;;;;;;29.68;29.40;101838.06;5215483;28;20668;-67
2022/08/11 13:31:10;;;;;;;5.78;2.28;;;;;;;29.67;27.17;101828.13;5211382;28;20425;-67
2022/08/11 13:33:46;;;;;;;6.78;2.65;;;;;;;29.99;27.20;101833.66;5202879;28;20029;-67
2022/08/11 13:36:26;;;;;;;3.80;2.20;;;;;;;29.94;26.64;101824.41;5209088;28;20512;-67
2022/08/11 13:38:57;;;;;;;4.15;2.42;;;;;;;29.94;28.85;101829.91;5215495;28;20059;-67
2022/08/11 13:41:38;;;;;;;4.43;2.35;;;;;;;30.00;29.98;101838.09;5209124;28;20519;-67
2022/08/11 13:44:12;;;;;;;3.65;2.10;;;;;;;29.82;28.16;101838.00;5220309;28;20056;-67
2022/08/11 13:46:44;;;;;;;8.02;2.83;;;;;;;29.95;28.97;101828.84;5203340;28;20025;-67
2022/08/11 13:49:19;;;;;;;6.68;2.20;;;;;;;29.86;29.01;101829.13;5208671;28;20050;-67
2022/08/11 13:51:54;;;;;;;4.22;1.95;;;;;;;29.76;28.19;101825.97;5205538;28;20113;-67
2022/08/11 13:54:33;;;;;;;4.45;2.30;;;;;;;29.89;28.62;101822.31;5198252;28;20044;-67
2022/08/11 13:57:07;;;;;;;5.35;2.50;;;;;;;29.94;29.50;101819.75;5204103;28;20038;-67
2022/08/11 13:59:40;;;;;;;3.25;2.15;;;;;;;29.98;29.41;101818.22;5210963;28;20055;-67
2022/08/11 14:02:16;;;;;;;6.88;2.40;;;;;;;29.90;29.49;101811.09;5210854;28;20042;-67
2022/08/11 14:04:52;;;;;;;3.88;2.05;;;;;;;29.83;28.66;101812.19;5202116;28;20030;-67
2022/08/11 14:07:33;;;;;;;3.67;2.25;;;;;;;30.12;28.38;101810.69;5205345;28;20025;-67
2022/08/11 14:10:06;;;;;;;4.70;2.20;;;;;;;30.02;29.35;101810.38;5203519;28;20085;-67
2022/08/11 14:15:33;;;;;;;5.40;2.75;;;;;;;30.05;30.20;101798.91;5203785;28;20042;-67
2022/08/11 14:18:19;;;;;;;5.75;2.50;;;;;;;29.97;30.15;101797.25;5208344;28;20029;-67
2022/08/11 14:23:49;;;;;;;5.30;2.60;;;;;;;30.35;27.29;101798.25;5215506;28;20037;-66
2022/08/11 14:26:27;;;;;;;5.38;2.60;;;;;;;30.40;27.14;101803.94;5200153;28;20491;-67
2022/08/11 14:29:08;;;;;;;5.20;2.28;;;;;;;30.64;27.69;101789.25;5207725;28;20076;-67
2022/08/11 14:31:45;;;;;;;5.22;2.38;;;;;;;30.51;28.76;101800.44;5204374;28;20038;-67
2022/08/11 14:34:20;;;;;;;4.30;2.40;;;;;;;30.71;28.67;101794.72;5203442;28;20040;-68
2022/08/11 14:36:54;;;;;;;6.65;2.80;;;;;;;30.41;28.55;101798.19;5206346;28;20032;-67
2022/08/11 14:39:30;;;;;;;5.05;2.10;;;;;;;30.36;28.61;101797.16;5208344;28;20038;-68
2022/08/11 14:47:53;;;;;;;5.57;2.30;;;;;;;30.67;26.19;101790.72;5201094;28;20049;-67
2022/08/11 14:50:25;;;;;;;;;;;;;;;30.61;29.31;101792.47;5206914;28;20395;-67
2022/08/11 14:52:59;;;;;;;4.93;2.40;;;;;;;30.56;27.50;101785.97;5200636;28;19960;-67
2022/08/11 14:58:26;;;;;;;6.07;2.70;;;;;;;30.66;29.26;101778.88;5215284;28;20046;-67
2022/08/11 15:01:00;;;;;;;3.33;2.33;;;;;;;30.49;29.67;101780.53;5200947;28;20578;-67
2022/08/11 15:03:32;;;;;;;6.93;2.70;;;;;;;30.76;27.31;101771.97;5209130;28;20030;-67
2022/08/11 15:06:04;;;;;;;6.60;2.75;;;;;;;30.76;26.11;101775.59;5209992;28;20026;-68
2022/08/11 15:08:53;;;;;;;6.13;2.53;;;;;;;30.73;25.92;101772.44;5207649;28;20487;-67
2022/08/11 15:17:11;;;;;;;4.95;2.38;;;;;;;30.60;28.24;101771.50;5206182;28;20034;-67
2022/08/11 15:24:18;;;;;;;5.45;2.60;;;;;;;30.74;27.78;101769.47;5200164;28;20038;-67
2022/08/11 15:25:28;;;;;;;4.75;2.30;;;;;;;30.87;26.68;101755.53;5202323;28;20037;-67
2022/08/11 15:39:33;;;;;;;4.18;2.60;;;;;;;30.58;28.23;101748.84;5211331;28;20456;-67
2022/08/11 15:48:07;;;;;;;5.22;2.40;;;;;;;30.46;26.50;101743.25;5205832;28;20451;-67
2022/08/11 15:50:43;;;;;;;6.53;2.50;;;;;;;30.31;28.38;101745.50;5212521;28;20049;-67
2022/08/11 15:53:39;;;;;;;3.92;1.90;;;;;;;30.49;27.42;101741.97;5203505;28;20174;-67
2022/08/11 15:56:11;;;;;;;5.20;2.28;;;;;;;30.39;28.30;101734.22;5199497;28;20753;-68
2022/08/11 16:04:31;;;;;;;5.85;2.47;;;;;;;30.29;26.96;101722.88;5205869;28;20050;-67
2022/08/11 16:07:14;;;;;;;4.70;2.17;;;;;;;30.33;28.18;101726.88;5204535;28;20592;-67
2022/08/11 16:09:49;;;;;;;4.43;2.45;;;;;;;30.37;26.31;101719.00;5207867;28;20100;-68
2022/08/11 16:12:29;;;;;;;5.45;2.03;;;;;;;30.28;27.47;101724.81;5209832;28;20193;-67
2022/08/11 16:18:00;;;;;;;4.95;2.17;;;;;;;30.08;29.06;101724.16;5203305;28;21149;-68
2022/08/11 16:20:33;;;;;;;3.42;2.08;;;;;;;30.10;26.11;101717.34;5201141;28;20036;-67
2022/08/11 16:23:06;;;;;;;4.13;2.00;;;;;;;29.90;27.27;101723.03;5198064;28;20046;-67
2022/08/11 16:25:39;;;;;;;4.97;1.95;;;;;;;30.01;29.61;101721.47;5206707;28;20017;-68
2022/08/11 16:28:12;;;;;;;6.00;1.88;;;;;;;30.13;26.63;101709.69;5200397;28;20071;-68
2022/08/11 16:30:45;;;;;;;3.38;2.33;;;;;;;29.93;26.81;101713.47;5202449;28;20026;-68
2022/08/11 16:33:19;;;;;;;3.97;2.25;;;;;;;30.03;26.96;101708.31;5203018;28;20638;-68
2022/08/11 16:38:42;;;;;;;3.50;2.20;;;;;;;29.96;27.27;101706.69;5201284;28;20045;-66
2022/08/11 16:46:58;;;;;;;5.75;2.22;;;;;;;30.08;26.09;101705.72;5199625;28;20109;-67
2022/08/11 16:47:06;;;;;;;5.45;1.80;;;;;;;30.17;26.51;101698.00;5202831;28;20037;-67
2022/08/11 16:49:42;;;;;;;3.47;2.00;;;;;;;30.12;25.97;101697.00;5201916;28;20034;-67
2022/08/11 16:52:14;;;;;;;5.07;2.13;;;;;;;30.07;26.83;101697.72;5202357;28;20037;-67
2022/08/11 16:54:48;;;;;;;4.18;2.10;;;;;;;29.97;27.05;101692.69;5202258;28;20026;-67
2022/08/11 17:00:21;;;;;;;6.47;2.10;;;;;;;29.85;27.82;101691.75;5207190;28;20065;-67
2022/08/11 17:14:50;;;;;;;5.32;2.00;;;;;;;29.59;28.36;101684.53;5212865;28;20030;-67
2022/08/11 17:17:36;;;;;;;6.82;2.22;;;;;;;29.65;27.72;101672.66;5209440;28;20548;-67
2022/08/11 17:20:11;;;;;;;5.40;2.15;;;;;;;29.66;28.34;101679.81;5207479;28;20038;-67
2022/08/11 17:25:33;;;;;;;4.60;2.17;;;;;;;29.35;28.11;101678.78;5216684;28;20030;-67